EQX215 LRTR-LROP
Flight info
| Callsign | EQX215 |
|---|---|
| Flight time | 0h 42m |
| Altitude | 21000 |
| Route | DITAX DCT BIVBU DCT TOSVI |
| Aircraft | A20N/M-SDE2E3FGHIRWXY/LB1 |
Departure
| Time | 2026-04-30 12:57 |
|---|---|
| Airport | Timișoara Traian Vuia International Airport (LRTR) |
Arrival
| Time | 2026-04-30 13:39 |
|---|---|
| Airport | Bucharest Henri Coandă International Airport (LROP) |
| Time | Latitude | Longitude | Altitude | Speed | Heading |
|---|---|---|---|---|---|
| 2026-04-30 12:25 | 45.81109 | 21.32058 | 352 ft | 0 kts | 191° |
| 2026-04-30 12:44 | 45.81124 | 21.32062 | 355 ft | 2 kts | 192° |
| 2026-04-30 12:44 | 45.81136 | 21.32073 | 352 ft | 2 kts | 252° |
| 2026-04-30 12:44 | 45.81140 | 21.32074 | 352 ft | 3 kts | 284° |
| 2026-04-30 12:45 | 45.81146 | 21.32045 | 359 ft | 3 kts | 290° |
| 2026-04-30 12:45 | 45.81156 | 21.32019 | 359 ft | 3 kts | 301° |
| 2026-04-30 12:45 | 45.81162 | 21.31993 | 355 ft | 0 kts | 278° |
| 2026-04-30 12:45 | 45.81161 | 21.31997 | 357 ft | 0 kts | 280° |
| 2026-04-30 12:52 | 45.81163 | 21.31984 | 355 ft | 3 kts | 282° |
| 2026-04-30 12:53 | 45.81174 | 21.31942 | 359 ft | 6 kts | 290° |
| 2026-04-30 12:53 | 45.81191 | 21.31872 | 355 ft | 9 kts | 290° |
| 2026-04-30 12:53 | 45.81215 | 21.31777 | 360 ft | 11 kts | 290° |
| 2026-04-30 12:53 | 45.81243 | 21.31661 | 357 ft | 13 kts | 289° |
| 2026-04-30 12:54 | 45.81308 | 21.31580 | 356 ft | 13 kts | 6° |
| 2026-04-30 12:54 | 45.81403 | 21.31623 | 351 ft | 15 kts | 18° |
| 2026-04-30 12:54 | 45.81496 | 21.31685 | 353 ft | 12 kts | 55° |
| 2026-04-30 12:54 | 45.81496 | 21.31750 | 350 ft | 0 kts | 104° |
| 2026-04-30 12:56 | 45.81496 | 21.31751 | 350 ft | 5 kts | 104° |
| 2026-04-30 12:56 | 45.81405 | 21.32131 | 354 ft | 74 kts | 109° |
| 2026-04-30 12:57 | 45.81159 | 21.33082 | 354 ft | 127 kts | 111° |
| 2026-04-30 12:57 | 45.80818 | 21.34469 | 394 ft | 164 kts | 107° |
| 2026-04-30 12:57 | 45.80402 | 21.36008 | 800 ft | 166 kts | 109° |
| 2026-04-30 12:57 | 45.79943 | 21.37571 | 1289 ft | 173 kts | 109° |
| 2026-04-30 12:58 | 45.79475 | 21.39152 | 1901 ft | 166 kts | 105° |
| 2026-04-30 12:58 | 45.79112 | 21.40730 | 2389 ft | 173 kts | 102° |
| 2026-04-30 12:58 | 45.78825 | 21.42080 | 2599 ft | 189 kts | 103° |
| 2026-04-30 12:58 | 45.78476 | 21.43630 | 2937 ft | 204 kts | 104° |
| 2026-04-30 12:59 | 45.78268 | 21.44515 | 3085 ft | 213 kts | 105° |
| 2026-04-30 12:59 | 45.77637 | 21.46568 | 3457 ft | 238 kts | 110° |
| 2026-04-30 12:59 | 45.76961 | 21.48841 | 4012 ft | 258 kts | 109° |
| 2026-04-30 12:59 | 45.76302 | 21.51271 | 4939 ft | 265 kts | 108° |
| 2026-04-30 13:00 | 45.75668 | 21.53781 | 5908 ft | 269 kts | 107° |
| 2026-04-30 13:00 | 45.75036 | 21.56316 | 6946 ft | 272 kts | 107° |
| 2026-04-30 13:00 | 45.74396 | 21.58865 | 7968 ft | 273 kts | 107° |
| 2026-04-30 13:00 | 45.73743 | 21.61434 | 8938 ft | 277 kts | 108° |
| 2026-04-30 13:01 | 45.73076 | 21.64035 | 9918 ft | 280 kts | 108° |
| 2026-04-30 13:01 | 45.72393 | 21.66695 | 10604 ft | 294 kts | 108° |
| 2026-04-30 13:01 | 45.71669 | 21.69516 | 10938 ft | 317 kts | 108° |
| 2026-04-30 13:01 | 45.70887 | 21.72556 | 11430 ft | 332 kts | 108° |
| 2026-04-30 13:02 | 45.70083 | 21.75657 | 12269 ft | 336 kts | 108° |
| 2026-04-30 13:02 | 45.69261 | 21.78823 | 13126 ft | 340 kts | 108° |
| 2026-04-30 13:02 | 45.68434 | 21.82004 | 13978 ft | 343 kts | 107° |
| 2026-04-30 13:02 | 45.67592 | 21.85236 | 14693 ft | 349 kts | 107° |
| 2026-04-30 13:03 | 45.66740 | 21.88512 | 15373 ft | 354 kts | 107° |
| 2026-04-30 13:03 | 45.65875 | 21.91832 | 16072 ft | 359 kts | 107° |
| 2026-04-30 13:03 | 45.64996 | 21.95200 | 16750 ft | 363 kts | 107° |
| 2026-04-30 13:03 | 45.64117 | 21.98562 | 17419 ft | 368 kts | 107° |
| 2026-04-30 13:04 | 45.63203 | 22.02049 | 18111 ft | 372 kts | 106° |
| 2026-04-30 13:04 | 45.62299 | 22.05493 | 18748 ft | 377 kts | 106° |
| 2026-04-30 13:04 | 45.61376 | 22.09008 | 19355 ft | 380 kts | 106° |
| 2026-04-30 13:04 | 45.60444 | 22.12556 | 19975 ft | 384 kts | 106° |
| 2026-04-30 13:05 | 45.59498 | 22.16147 | 20563 ft | 387 kts | 106° |
| 2026-04-30 13:05 | 45.58545 | 22.19765 | 21077 ft | 391 kts | 106° |
| 2026-04-30 13:05 | 45.57582 | 22.23412 | 21244 ft | 393 kts | 106° |
| 2026-04-30 13:06 | 45.56325 | 22.28160 | 21261 ft | 392 kts | 106° |
| 2026-04-30 13:06 | 45.55370 | 22.31761 | 21265 ft | 392 kts | 106° |
| 2026-04-30 13:06 | 45.54400 | 22.35396 | 21265 ft | 392 kts | 107° |
| 2026-04-30 13:06 | 45.53587 | 22.38411 | 21262 ft | 391 kts | 107° |
| 2026-04-30 13:07 | 45.52610 | 22.42032 | 21264 ft | 391 kts | 107° |
| 2026-04-30 13:07 | 45.51634 | 22.45656 | 21265 ft | 391 kts | 106° |
| 2026-04-30 13:07 | 45.50660 | 22.49279 | 21264 ft | 391 kts | 106° |
| 2026-04-30 13:07 | 45.49688 | 22.52893 | 21260 ft | 391 kts | 106° |
| 2026-04-30 13:08 | 45.48712 | 22.56518 | 21260 ft | 391 kts | 106° |
| 2026-04-30 13:08 | 45.47737 | 22.60133 | 21263 ft | 390 kts | 106° |
| 2026-04-30 13:08 | 45.46763 | 22.63739 | 21259 ft | 390 kts | 107° |
| 2026-04-30 13:08 | 45.45788 | 22.67348 | 21263 ft | 391 kts | 107° |
| 2026-04-30 13:09 | 45.44806 | 22.70977 | 21261 ft | 392 kts | 107° |
| 2026-04-30 13:09 | 45.43821 | 22.74606 | 21259 ft | 393 kts | 107° |
| 2026-04-30 13:09 | 45.42846 | 22.78192 | 21260 ft | 393 kts | 108° |
| 2026-04-30 13:09 | 45.41857 | 22.81822 | 21263 ft | 394 kts | 108° |
| 2026-04-30 13:10 | 45.40865 | 22.85462 | 21263 ft | 394 kts | 108° |
| 2026-04-30 13:10 | 45.39870 | 22.89107 | 21263 ft | 395 kts | 108° |
| 2026-04-30 13:10 | 45.38876 | 22.92743 | 21263 ft | 395 kts | 108° |
| 2026-04-30 13:10 | 45.37878 | 22.96386 | 21267 ft | 396 kts | 109° |
| 2026-04-30 13:11 | 45.36876 | 23.00036 | 21261 ft | 396 kts | 109° |
| 2026-04-30 13:11 | 45.35873 | 23.03688 | 21259 ft | 396 kts | 109° |
| 2026-04-30 13:11 | 45.34868 | 23.07339 | 21261 ft | 398 kts | 109° |
| 2026-04-30 13:11 | 45.33858 | 23.11003 | 21259 ft | 399 kts | 110° |
| 2026-04-30 13:12 | 45.32844 | 23.14674 | 21262 ft | 400 kts | 110° |
| 2026-04-30 13:12 | 45.31826 | 23.18357 | 21262 ft | 401 kts | 110° |
| 2026-04-30 13:12 | 45.30805 | 23.22044 | 21254 ft | 401 kts | 111° |
| 2026-04-30 13:13 | 45.28754 | 23.29434 | 21263 ft | 402 kts | 111° |
| 2026-04-30 13:13 | 45.27778 | 23.32943 | 21262 ft | 402 kts | 111° |
| 2026-04-30 13:13 | 45.25729 | 23.40285 | 21266 ft | 404 kts | 112° |
| 2026-04-30 13:14 | 45.24691 | 23.43998 | 21264 ft | 404 kts | 112° |
| 2026-04-30 13:14 | 45.23650 | 23.47717 | 21268 ft | 405 kts | 113° |
| 2026-04-30 13:14 | 45.21560 | 23.55165 | 21266 ft | 407 kts | 114° |
| 2026-04-30 13:15 | 45.20511 | 23.58896 | 21268 ft | 408 kts | 114° |
| 2026-04-30 13:15 | 45.18401 | 23.66382 | 21269 ft | 410 kts | 115° |
| 2026-04-30 13:15 | 45.17339 | 23.70143 | 21270 ft | 410 kts | 115° |
| 2026-04-30 13:16 | 45.16274 | 23.73904 | 21278 ft | 411 kts | 115° |
| 2026-04-30 13:16 | 45.15222 | 23.77616 | 21278 ft | 411 kts | 115° |
| 2026-04-30 13:16 | 45.14157 | 23.81365 | 21282 ft | 411 kts | 115° |
| 2026-04-30 13:17 | 45.12021 | 23.88867 | 21285 ft | 411 kts | 115° |
| 2026-04-30 13:17 | 45.10951 | 23.92617 | 21284 ft | 411 kts | 115° |
| 2026-04-30 13:17 | 45.09168 | 23.98855 | 21285 ft | 410 kts | 116° |
| 2026-04-30 13:18 | 45.07729 | 24.03872 | 21290 ft | 411 kts | 116° |
| 2026-04-30 13:18 | 45.05574 | 24.11372 | 21285 ft | 411 kts | 116° |
| 2026-04-30 13:18 | 45.04497 | 24.15110 | 21286 ft | 410 kts | 116° |
| 2026-04-30 13:19 | 45.03417 | 24.18849 | 21288 ft | 412 kts | 116° |
| 2026-04-30 13:19 | 45.02333 | 24.22601 | 21290 ft | 411 kts | 116° |
| 2026-04-30 13:19 | 45.01594 | 24.25153 | 21293 ft | 411 kts | 116° |
| 2026-04-30 13:19 | 45.00809 | 24.27864 | 21296 ft | 412 kts | 116° |
| 2026-04-30 13:20 | 44.99697 | 24.31695 | 21291 ft | 412 kts | 116° |
| 2026-04-30 13:20 | 44.98614 | 24.35423 | 21145 ft | 409 kts | 116° |
| 2026-04-30 13:20 | 44.97535 | 24.39131 | 20817 ft | 406 kts | 116° |
| 2026-04-30 13:20 | 44.96467 | 24.42799 | 20394 ft | 401 kts | 116° |
| 2026-04-30 13:21 | 44.95410 | 24.46422 | 19967 ft | 396 kts | 116° |
| 2026-04-30 13:21 | 44.94366 | 24.49994 | 19518 ft | 391 kts | 116° |
| 2026-04-30 13:21 | 44.93336 | 24.53507 | 19068 ft | 385 kts | 115° |
| 2026-04-30 13:22 | 44.91558 | 24.59564 | 18215 ft | 377 kts | 115° |
| 2026-04-30 13:22 | 44.90724 | 24.62397 | 17680 ft | 375 kts | 115° |
| 2026-04-30 13:22 | 44.88732 | 24.69155 | 16556 ft | 371 kts | 114° |
| 2026-04-30 13:23 | 44.87745 | 24.72503 | 16031 ft | 369 kts | 114° |
| 2026-04-30 13:23 | 44.85789 | 24.79127 | 15072 ft | 363 kts | 114° |
| 2026-04-30 13:24 | 44.83849 | 24.85669 | 14069 ft | 360 kts | 113° |
| 2026-04-30 13:24 | 44.81937 | 24.92116 | 13085 ft | 353 kts | 112° |
| 2026-04-30 13:25 | 44.80066 | 24.98406 | 12193 ft | 344 kts | 112° |
| 2026-04-30 13:25 | 44.78236 | 25.04542 | 11390 ft | 332 kts | 112° |
| 2026-04-30 13:26 | 44.75825 | 25.12608 | 11298 ft | 335 kts | 112° |
| 2026-04-30 13:26 | 44.73956 | 25.18845 | 11076 ft | 333 kts | 112° |
| 2026-04-30 13:27 | 44.72181 | 25.24742 | 10539 ft | 317 kts | 112° |
| 2026-04-30 13:28 | 44.70042 | 25.31843 | 9895 ft | 281 kts | 112° |
| 2026-04-30 13:28 | 44.68539 | 25.36816 | 9159 ft | 276 kts | 111° |
| 2026-04-30 13:28 | 44.67792 | 25.39282 | 8783 ft | 273 kts | 110° |
| 2026-04-30 13:29 | 44.66315 | 25.44158 | 8045 ft | 269 kts | 110° |
| 2026-04-30 13:29 | 44.64858 | 25.48965 | 7283 ft | 266 kts | 110° |
| 2026-04-30 13:30 | 44.62763 | 25.55837 | 6517 ft | 240 kts | 109° |
| 2026-04-30 13:31 | 44.61468 | 25.60094 | 5564 ft | 235 kts | 109° |
| 2026-04-30 13:31 | 44.59577 | 25.66292 | 4357 ft | 222 kts | 109° |
| 2026-04-30 13:32 | 44.58426 | 25.70035 | 3890 ft | 201 kts | 108° |
| 2026-04-30 13:32 | 44.57333 | 25.73623 | 3056 ft | 198 kts | 108° |
| 2026-04-30 13:33 | 44.56268 | 25.77102 | 2522 ft | 197 kts | 108° |
| 2026-04-30 13:33 | 44.55185 | 25.80644 | 2497 ft | 198 kts | 108° |
| 2026-04-30 13:34 | 44.54705 | 25.82435 | 2497 ft | 194 kts | 97° |
| 2026-04-30 13:34 | 44.54919 | 25.87592 | 2494 ft | 149 kts | 80° |
| 2026-04-30 13:35 | 44.55019 | 25.88909 | 2486 ft | 125 kts | 80° |
| 2026-04-30 13:35 | 44.55158 | 25.90663 | 2494 ft | 127 kts | 79° |
| 2026-04-30 13:36 | 44.55380 | 25.93095 | 2478 ft | 128 kts | 79° |
| 2026-04-30 13:36 | 44.55473 | 25.94339 | 2330 ft | 129 kts | 80° |
| 2026-04-30 13:36 | 44.55659 | 25.96838 | 1973 ft | 129 kts | 80° |
| 2026-04-30 13:37 | 44.55751 | 25.98084 | 1797 ft | 129 kts | 79° |
| 2026-04-30 13:37 | 44.55936 | 26.00610 | 1430 ft | 128 kts | 79° |
| 2026-04-30 13:38 | 44.56126 | 26.03098 | 1032 ft | 131 kts | 79° |
| 2026-04-30 13:38 | 44.56220 | 26.04372 | 847 ft | 128 kts | 80° |
| 2026-04-30 13:38 | 44.56389 | 26.06616 | 527 ft | 128 kts | 81° |
| 2026-04-30 13:39 | 44.56577 | 26.09066 | 318 ft | 110 kts | 82° |
| 2026-04-30 13:39 | 44.56659 | 26.10082 | 320 ft | 0 kts | 83° |
| 2026-04-30 13:40 | 44.56667 | 26.10181 | 320 ft | 21 kts | 83° |
| 2026-04-30 13:40 | 44.56688 | 26.10455 | 319 ft | 32 kts | 85° |
| 2026-04-30 13:40 | 44.56737 | 26.10744 | 320 ft | 27 kts | 39° |
| 2026-04-30 13:40 | 44.56814 | 26.10761 | 324 ft | 5 kts | 349° |
| 2026-04-30 13:41 | 44.56841 | 26.10755 | 324 ft | 3 kts | 351° |
| 2026-04-30 13:41 | 44.56859 | 26.10751 | 325 ft | 2 kts | 351° |
| 2026-04-30 13:41 | 44.56866 | 26.10750 | 324 ft | 1 kts | 351° |
| 2026-04-30 13:41 | 44.56872 | 26.10749 | 324 ft | 1 kts | 351° |
| 2026-04-30 13:42 | 44.56883 | 26.10746 | 323 ft | 4 kts | 351° |
| 2026-04-30 13:42 | 44.56928 | 26.10738 | 326 ft | 9 kts | 352° |
| 2026-04-30 13:42 | 44.57064 | 26.10540 | 326 ft | 22 kts | 278° |
| 2026-04-30 13:43 | 44.57044 | 26.10309 | 327 ft | 25 kts | 264° |
| 2026-04-30 13:43 | 44.57026 | 26.10078 | 327 ft | 14 kts | 264° |
| 2026-04-30 13:43 | 44.57018 | 26.09960 | 327 ft | 10 kts | 264° |
| 2026-04-30 13:43 | 44.57011 | 26.09860 | 325 ft | 11 kts | 264° |
| 2026-04-30 13:44 | 44.57002 | 26.09720 | 327 ft | 18 kts | 265° |
| 2026-04-30 13:44 | 44.56989 | 26.09511 | 325 ft | 24 kts | 264° |
| 2026-04-30 13:44 | 44.56979 | 26.09366 | 324 ft | 0 kts | 265° |
| 2026-04-30 13:44 | 44.56978 | 26.09355 | 324 ft | 3 kts | 264° |
| 2026-04-30 13:45 | 44.56960 | 26.09149 | 326 ft | 17 kts | 263° |
| 2026-04-30 13:45 | 44.56945 | 26.08996 | 325 ft | 2 kts | 238° |
| 2026-04-30 13:45 | 44.56941 | 26.08995 | 325 ft | 1 kts | 207° |
| 2026-04-30 13:46 | 44.56929 | 26.08999 | 327 ft | 5 kts | 168° |
| 2026-04-30 13:46 | 44.56871 | 26.09009 | 325 ft | 1 kts | 174° |